Time;durP1;ratioP1;P1;durP2;ratioP2;P2;SDS_P1;SDS_P2;PMS_P1;PMS_P2;Temp;Humidity;BMP_temperature;BMP_pressure;BME280_temperature;BME280_humidity;BME280_pressure;Samples;Min_cycle;Max_cycle;Signal;HPM_P1;HPM_P2
2023/07/14 00:01:34;;;;;;;5.07;2.87;;;;;;;19.51;51.58;98180.31;4966413;28;20525;-72
2023/07/14 00:04:01;;;;;;;4.07;2.53;;;;;;;19.32;52.49;98183.34;4966016;28;20458;-72
2023/07/14 00:06:29;;;;;;;4.77;2.37;;;;;;;19.46;52.38;98178.31;4968395;28;20466;-72
2023/07/14 00:08:56;;;;;;;2.70;2.50;;;;;;;19.65;51.73;98182.41;4969344;28;20860;-72
2023/07/14 00:11:24;;;;;;;3.50;2.70;;;;;;;19.99;49.32;98176.75;4969682;28;21424;-72
2023/07/14 00:13:53;;;;;;;4.60;2.57;;;;;;;20.05;48.89;98182.03;4967920;28;20497;-73
2023/07/14 00:16:22;;;;;;;3.60;2.50;;;;;;;20.10;47.91;98176.59;4965918;28;21024;-72
2023/07/14 00:18:48;;;;;;;2.43;2.23;;;;;;;20.10;49.44;98176.59;4969264;28;20562;-71
2023/07/14 00:21:17;;;;;;;3.53;2.30;;;;;;;20.07;49.10;98179.84;4966232;28;20864;-71
2023/07/14 00:23:45;;;;;;;3.67;2.70;;;;;;;19.85;50.96;98172.72;4970291;28;20452;-72
2023/07/14 00:26:14;;;;;;;3.87;2.77;;;;;;;19.67;51.57;98179.41;4966876;28;21176;-71
2023/07/14 00:28:42;;;;;;;3.67;2.70;;;;;;;19.62;52.17;98180.19;4965432;28;20455;-72
2023/07/14 00:31:12;;;;;;;2.70;2.50;;;;;;;19.85;50.36;98176.31;4968644;28;20515;-71
2023/07/14 00:33:39;;;;;;;3.00;2.60;;;;;;;20.15;49.67;98170.28;4966896;28;20493;-72
2023/07/14 00:36:07;;;;;;;2.60;2.20;;;;;;;20.10;50.29;98168.34;4965854;28;20462;-72
2023/07/14 00:38:35;;;;;;;4.00;2.37;;;;;;;19.96;51.09;98169.00;4966459;28;20959;-72
2023/07/14 00:41:06;;;;;;;3.97;2.40;;;;;;;19.95;51.10;98168.19;4965160;28;20997;-72
2023/07/14 00:43:33;;;;;;;2.60;2.33;;;;;;;19.81;51.85;98163.38;4969102;28;20482;-71
2023/07/14 00:46:00;;;;;;;4.50;2.60;;;;;;;19.65;52.24;98165.09;4973599;28;20469;-70
2023/07/14 00:48:29;;;;;;;2.57;2.33;;;;;;;19.71;52.07;98162.16;4988511;28;20464;-71
2023/07/14 00:50:59;;;;;;;3.07;2.57;;;;;;;19.91;49.96;98166.22;4980400;28;20478;-72
2023/07/14 00:53:29;;;;;;;3.27;2.40;;;;;;;19.82;51.22;98152.09;4969859;28;20824;-72
2023/07/14 00:55:58;;;;;;;3.90;2.67;;;;;;;19.84;50.01;98154.59;4970138;28;20517;-72
2023/07/14 00:58:27;;;;;;;4.20;2.70;;;;;;;19.74;50.17;98158.06;4971062;28;20459;-72
2023/07/14 01:01:08;;;;;;;3.37;2.30;;;;;;;19.81;49.01;98158.72;4967391;28;20573;-72
2023/07/14 01:03:39;;;;;;;2.77;2.43;;;;;;;19.82;49.72;98154.03;4966612;28;20931;-72
2023/07/14 01:06:08;;;;;;;3.63;2.43;;;;;;;19.52;50.68;98149.84;4968580;28;20467;-72
2023/07/14 01:08:36;;;;;;;5.40;2.67;;;;;;;19.49;51.22;98147.63;4966403;28;20459;-72
2023/07/14 01:11:03;;;;;;;3.43;2.40;;;;;;;19.38;51.71;98157.63;4967932;28;20581;-72
2023/07/14 01:13:31;;;;;;;3.07;2.50;;;;;;;19.24;52.32;98148.13;4966197;28;20491;-72
2023/07/14 01:15:58;;;;;;;5.87;2.90;;;;;;;19.25;52.36;98151.69;4966812;28;20545;-72
2023/07/14 01:18:25;;;;;;;2.43;2.17;;;;;;;19.15;52.54;98152.41;4969166;28;20545;-72
2023/07/14 01:20:52;;;;;;;2.60;2.30;;;;;;;18.98;53.15;98146.97;4968241;28;20996;-71
2023/07/14 01:23:37;;;;;;;3.30;3.00;;;;;;;18.83;53.84;98146.75;4966936;28;20498;-71
2023/07/14 01:26:22;;;;;;;3.40;2.80;;;;;;;18.71;53.76;98149.59;4966482;28;20884;-71
2023/07/14 01:28:51;;;;;;;3.80;2.40;;;;;;;18.84;53.74;98147.59;4962690;28;20486;-72
2023/07/14 01:31:24;;;;;;;3.10;2.40;;;;;;;18.81;53.58;98148.09;4969102;28;20478;-72
2023/07/14 01:33:52;;;;;;;5.47;3.10;;;;;;;18.58;54.26;98144.41;4971753;28;20489;-72
2023/07/14 01:36:23;;;;;;;3.00;2.60;;;;;;;18.60;54.40;98139.53;4968190;28;21156;-71
2023/07/14 01:38:50;;;;;;;2.97;2.50;;;;;;;18.62;54.45;98139.31;4965044;28;20454;-72
2023/07/14 01:41:17;;;;;;;4.50;2.80;;;;;;;18.56;54.63;98143.84;4968351;28;20479;-73
2023/07/14 01:43:44;;;;;;;4.73;2.60;;;;;;;18.56;54.78;98143.84;4967511;28;20920;-72
2023/07/14 01:46:16;;;;;;;4.60;2.77;;;;;;;18.58;54.61;98132.63;4965745;28;20481;-72
2023/07/14 01:48:59;;;;;;;4.70;2.87;;;;;;;18.48;55.19;98143.44;4971148;28;20470;-72
2023/07/14 01:51:28;;;;;;;2.93;2.63;;;;;;;18.25;55.89;98138.94;4968587;28;21092;-72
2023/07/14 01:54:00;;;;;;;4.87;3.10;;;;;;;18.17;56.18;98131.16;4971433;28;20555;-73
2023/07/14 01:56:28;;;;;;;3.40;2.40;;;;;;;17.98;56.59;98128.66;4973540;28;20453;-72
2023/07/14 01:59:01;;;;;;;3.93;3.00;;;;;;;17.97;56.91;98121.50;4969214;28;20465;-72
2023/07/14 02:01:32;;;;;;;2.50;2.30;;;;;;;17.79;57.62;98125.31;4967997;28;20470;-72
2023/07/14 02:04:01;;;;;;;4.20;2.60;;;;;;;17.53;58.69;98128.63;4966991;28;20569;-72
2023/07/14 02:06:27;;;;;;;5.20;2.70;;;;;;;17.37;59.33;98127.50;4969170;28;20538;-72
2023/07/14 02:08:55;;;;;;;3.10;2.30;;;;;;;17.31;59.34;98123.00;4968415;28;20541;-71
2023/07/14 02:11:23;;;;;;;3.90;2.73;;;;;;;17.30;59.75;98121.31;4966720;28;20483;-72
2023/07/14 02:13:51;;;;;;;3.87;2.53;;;;;;;17.24;59.76;98122.28;4966269;28;20521;-72
2023/07/14 02:16:19;;;;;;;4.40;3.20;;;;;;;17.20;60.19;98120.31;4969540;28;20459;-71
2023/07/14 02:18:48;;;;;;;2.70;2.50;;;;;;;17.19;59.89;98114.00;4968091;28;20482;-72
2023/07/14 02:21:20;;;;;;;4.57;2.30;;;;;;;17.22;59.85;98118.97;4970356;28;20843;-72
2023/07/14 02:23:48;;;;;;;5.50;3.17;;;;;;;17.25;59.79;98112.19;4971063;28;20470;-72
2023/07/14 02:26:29;;;;;;;3.37;3.00;;;;;;;17.10;60.43;98112.72;4971199;28;20966;-72
2023/07/14 02:28:57;;;;;;;3.90;2.87;;;;;;;17.19;60.21;98110.44;4967849;28;20491;-72
2023/07/14 02:31:26;;;;;;;5.10;2.97;;;;;;;17.23;60.07;98108.84;4972438;28;20995;-72
2023/07/14 02:33:54;;;;;;;3.70;2.80;;;;;;;17.32;59.80;98113.72;4966982;28;20455;-71
2023/07/14 02:36:28;;;;;;;3.67;3.23;;;;;;;17.28;59.55;98118.00;4967971;28;20466;-72
2023/07/14 02:38:55;;;;;;;3.90;2.80;;;;;;;17.28;59.45;98115.25;4967033;28;20462;-71
2023/07/14 02:41:26;;;;;;;4.27;2.93;;;;;;;17.08;60.03;98112.13;4970952;28;20575;-72
2023/07/14 02:43:54;;;;;;;3.00;2.70;;;;;;;17.06;59.92;98104.16;4969974;28;20602;-71
2023/07/14 02:46:24;;;;;;;2.70;2.40;;;;;;;16.96;60.36;98122.25;4968970;28;20459;-71
2023/07/14 02:48:54;;;;;;;3.43;2.70;;;;;;;16.77;60.96;98111.47;4967208;28;20514;-71
2023/07/14 02:51:21;;;;;;;3.20;2.90;;;;;;;16.83;61.06;98117.06;4966451;28;20545;-72
2023/07/14 02:53:48;;;;;;;2.87;2.63;;;;;;;16.81;61.24;98116.47;4968850;28;20486;-72
2023/07/14 02:56:15;;;;;;;3.43;2.77;;;;;;;16.70;61.34;98110.78;4966366;28;20471;-72
2023/07/14 02:58:47;;;;;;;2.60;2.40;;;;;;;16.82;61.25;98118.13;4970670;28;20463;-72
2023/07/14 03:01:14;;;;;;;6.03;3.03;;;;;;;17.03;60.84;98109.28;4965350;28;20497;-72
2023/07/14 03:03:41;;;;;;;4.33;2.87;;;;;;;17.02;60.93;98102.16;4968595;28;20793;-72
2023/07/14 03:06:12;;;;;;;3.60;2.80;;;;;;;17.07;60.36;98105.81;4967429;28;21042;-71
2023/07/14 03:08:38;;;;;;;2.73;2.53;;;;;;;17.05;60.21;98107.13;4964976;28;20479;-71
2023/07/14 03:11:05;;;;;;;4.47;2.97;;;;;;;16.85;60.88;98107.56;4969301;28;20622;-71
2023/07/14 03:13:34;;;;;;;4.60;2.80;;;;;;;16.65;61.77;98104.34;4955810;28;20665;-71
2023/07/14 03:16:01;;;;;;;3.67;2.57;;;;;;;16.65;61.61;98094.25;4969177;28;20493;-72
2023/07/14 03:18:28;;;;;;;3.63;2.90;;;;;;;16.51;61.96;98098.28;4971029;28;20489;-72
2023/07/14 03:20:58;;;;;;;3.00;2.70;;;;;;;16.65;61.48;98091.53;4968399;28;20478;-72
2023/07/14 03:23:27;;;;;;;4.40;2.63;;;;;;;16.62;61.81;98093.88;4969284;28;20498;-72
2023/07/14 03:25:54;;;;;;;2.97;2.73;;;;;;;16.57;61.86;98099.25;4969790;28;20474;-73
2023/07/14 03:28:21;;;;;;;2.67;2.47;;;;;;;16.49;62.20;98094.97;4971791;28;20447;-73
2023/07/14 03:30:48;;;;;;;5.17;2.97;;;;;;;16.52;61.85;98094.50;4968480;28;20471;-72
2023/07/14 03:33:14;;;;;;;3.40;2.60;;;;;;;16.58;61.94;98090.78;4988134;28;20458;-73
2023/07/14 03:35:41;;;;;;;3.17;2.93;;;;;;;16.62;61.97;98086.50;4990403;28;20482;-70
2023/07/14 03:38:08;;;;;;;4.93;3.37;;;;;;;16.66;61.49;98087.72;4972538;28;20498;-71
2023/07/14 03:40:36;;;;;;;3.33;2.87;;;;;;;16.39;62.62;98081.06;4970324;28;21081;-71
2023/07/14 03:43:03;;;;;;;3.27;2.70;;;;;;;16.45;62.50;98088.31;4971913;28;20458;-71
2023/07/14 03:45:31;;;;;;;3.70;3.17;;;;;;;16.75;61.42;98091.75;4971524;28;20482;-71
2023/07/14 03:47:58;;;;;;;3.90;3.20;;;;;;;16.73;61.43;98087.59;4970669;28;20974;-71
2023/07/14 03:50:25;;;;;;;4.33;2.80;;;;;;;16.55;61.73;98085.00;4969904;28;20569;-69
2023/07/14 03:52:52;;;;;;;2.93;2.70;;;;;;;16.29;62.36;98086.28;4964498;28;20472;-69
2023/07/14 03:55:19;;;;;;;4.43;3.30;;;;;;;16.26;62.69;98084.03;4967739;28;20537;-68
2023/07/14 03:57:47;;;;;;;6.40;3.40;;;;;;;16.26;62.42;98079.41;4967768;28;20792;-68
2023/07/14 04:00:17;;;;;;;3.20;2.90;;;;;;;16.27;62.58;98081.06;4968883;28;20894;-68
2023/07/14 04:02:45;;;;;;;2.83;2.60;;;;;;;16.19;63.18;98089.63;4964470;28;20538;-68
2023/07/14 04:05:13;;;;;;;3.13;2.83;;;;;;;16.28;62.79;98087.34;4969044;28;20716;-68
2023/07/14 04:07:41;;;;;;;3.10;2.80;;;;;;;16.38;62.50;98084.88;4965962;28;21006;-67
2023/07/14 04:10:09;;;;;;;2.93;2.63;;;;;;;16.48;62.76;98087.84;4968943;28;20478;-67
2023/07/14 04:12:36;;;;;;;3.00;2.57;;;;;;;16.47;62.06;98094.38;4966548;28;20981;-67
2023/07/14 04:15:05;;;;;;;3.80;2.90;;;;;;;16.58;61.65;98085.31;4970115;28;20521;-67
2023/07/14 04:17:32;;;;;;;4.40;2.77;;;;;;;16.65;60.93;98090.69;4970482;28;20458;-67
2023/07/14 04:19:59;;;;;;;3.17;2.87;;;;;;;16.73;60.90;98082.13;4965328;28;21006;-67
2023/07/14 04:22:26;;;;;;;5.10;2.80;;;;;;;16.78;60.55;98088.53;4967901;28;20459;-67
2023/07/14 04:24:53;;;;;;;3.37;2.47;;;;;;;16.81;60.45;98094.59;4967876;28;20486;-67
2023/07/14 04:27:20;;;;;;;4.17;2.67;;;;;;;16.91;60.43;98092.06;4966632;28;20458;-68
2023/07/14 04:29:46;;;;;;;3.00;2.60;;;;;;;17.12;59.41;98092.25;4967901;28;20553;-66
2023/07/14 04:32:15;;;;;;;3.30;2.80;;;;;;;17.14;58.91;98092.03;4966052;28;20473;-67
2023/07/14 04:34:42;;;;;;;3.97;2.60;;;;;;;16.91;60.05;98094.78;4964384;28;20541;-68
2023/07/14 04:37:09;;;;;;;4.30;2.80;;;;;;;16.97;59.79;98085.63;4967729;28;20455;-69
2023/07/14 04:39:36;;;;;;;4.23;3.20;;;;;;;17.06;59.70;98092.41;4969204;28;20578;-66
2023/07/14 04:42:04;;;;;;;3.07;2.77;;;;;;;16.97;60.23;98093.84;4969387;28;20458;-67
2023/07/14 04:44:31;;;;;;;5.23;2.80;;;;;;;17.03;60.36;98090.13;4969232;28;20562;-67
2023/07/14 04:46:58;;;;;;;3.80;3.20;;;;;;;17.00;60.54;98091.44;4965149;28;20542;-69
2023/07/14 04:49:26;;;;;;;3.23;2.77;;;;;;;16.84;61.29;98088.66;4966981;28;20971;-67
2023/07/14 04:51:53;;;;;;;3.33;3.03;;;;;;;16.75;61.86;98091.75;4961192;28;20859;-67
2023/07/14 04:54:23;;;;;;;2.70;2.50;;;;;;;16.90;61.31;98087.66;4963342;28;20574;-68
2023/07/14 04:56:51;;;;;;;2.90;2.70;;;;;;;16.72;62.21;98083.19;4965369;28;20485;-68
2023/07/14 04:59:18;;;;;;;3.20;2.90;;;;;;;16.75;62.36;98085.47;4966394;28;20458;-68
2023/07/14 05:01:46;;;;;;;4.13;3.33;;;;;;;16.72;62.85;98075.84;4965308;28;20894;-68
2023/07/14 05:04:12;;;;;;;4.50;2.70;;;;;;;16.74;62.87;98081.06;4964978;28;20525;-71
2023/07/14 05:06:41;;;;;;;3.40;3.10;;;;;;;16.74;63.56;98079.16;4961443;28;20581;-68
2023/07/14 05:09:08;;;;;;;4.93;3.10;;;;;;;16.98;62.83;98077.19;4966675;28;20459;-67
2023/07/14 05:11:35;;;;;;;3.60;3.30;;;;;;;17.02;63.24;98072.91;4967655;28;20490;-68
2023/07/14 05:14:04;;;;;;;3.60;3.17;;;;;;;17.01;63.65;98073.16;4969181;28;20460;-68
2023/07/14 05:16:31;;;;;;;5.87;3.43;;;;;;;17.12;63.30;98066.81;4968975;28;20582;-68
2023/07/14 05:18:57;;;;;;;3.20;2.90;;;;;;;17.07;63.64;98078.47;4969317;28;20485;-68
2023/07/14 05:21:24;;;;;;;3.83;2.83;;;;;;;17.09;63.41;98075.50;4970832;28;20478;-68
2023/07/14 05:23:52;;;;;;;4.00;3.20;;;;;;;17.08;63.91;98063.72;4970487;28;20458;-69
2023/07/14 05:26:19;;;;;;;5.00;3.20;;;;;;;17.12;62.64;98069.56;4967115;28;20500;-69
2023/07/14 05:28:46;;;;;;;5.83;3.40;;;;;;;17.16;62.49;98067.16;4972346;28;20474;-68
2023/07/14 05:31:14;;;;;;;4.10;3.20;;;;;;;17.22;61.67;98068.94;4968713;28;21217;-69
2023/07/14 05:33:40;;;;;;;4.20;3.17;;;;;;;17.44;60.57;98067.16;4965922;28;20458;-75
2023/07/14 05:36:07;;;;;;;4.53;2.80;;;;;;;17.34;61.16;98064.22;4968383;28;20494;-75
2023/07/14 05:38:34;;;;;;;5.83;3.00;;;;;;;17.49;61.44;98067.25;4970215;28;20816;-75
2023/07/14 05:41:04;;;;;;;3.23;2.93;;;;;;;17.40;61.79;98066.81;4967953;28;20478;-75
2023/07/14 05:43:31;;;;;;;5.40;3.23;;;;;;;17.69;61.84;98072.28;4970292;28;20454;-75
2023/07/14 05:45:58;;;;;;;6.00;3.50;;;;;;;17.95;61.33;98074.38;4968329;28;20486;-75
2023/07/14 05:48:25;;;;;;;3.77;2.97;;;;;;;18.24;60.40;98071.53;4966953;28;20554;-76
2023/07/14 05:50:52;;;;;;;3.07;2.77;;;;;;;18.48;59.95;98072.19;4967796;28;20530;-76
2023/07/14 05:53:19;;;;;;;3.87;2.70;;;;;;;18.77;58.93;98069.06;4969959;28;21534;-77
2023/07/14 05:55:46;;;;;;;3.53;2.83;;;;;;;18.58;58.38;98064.91;4970833;28;20482;-76
2023/07/14 05:58:15;;;;;;;4.00;2.97;;;;;;;18.60;58.78;98062.78;4968560;28;20459;-75
2023/07/14 06:00:42;;;;;;;3.87;3.00;;;;;;;18.87;56.93;98062.03;4972816;28;20487;-75
2023/07/14 06:03:12;;;;;;;3.90;3.50;;;;;;;18.95;56.90;98059.69;4973919;28;20454;-75
2023/07/14 06:05:39;;;;;;;4.10;2.87;;;;;;;18.95;56.72;98069.81;4972771;28;20493;-74
2023/07/14 06:08:07;;;;;;;2.90;2.60;;;;;;;19.04;56.72;98060.06;4970128;28;20473;-75
2023/07/14 06:10:34;;;;;;;3.30;2.93;;;;;;;18.82;56.71;98062.00;4972389;28;20470;-75
2023/07/14 06:13:01;;;;;;;3.50;3.20;;;;;;;18.81;57.20;98063.06;4972933;28;20870;-75
2023/07/14 06:15:29;;;;;;;3.10;2.80;;;;;;;18.64;57.99;98061.19;4971109;28;20459;-74
2023/07/14 06:17:56;;;;;;;3.30;2.77;;;;;;;18.76;58.09;98055.59;4990967;28;20447;-75
2023/07/14 06:20:23;;;;;;;3.97;3.03;;;;;;;18.98;57.17;98061.09;4990409;28;20478;-75
2023/07/14 06:22:50;;;;;;;3.03;2.73;;;;;;;18.96;57.41;98049.53;4975053;28;20509;-76
2023/07/14 06:25:17;;;;;;;5.93;3.50;;;;;;;18.86;57.27;98050.22;4972819;28;21025;-76
2023/07/14 06:27:44;;;;;;;3.97;3.57;;;;;;;19.08;57.03;98045.59;4973423;28;20565;-75
2023/07/14 06:30:11;;;;;;;3.10;2.80;;;;;;;19.43;56.01;98047.91;4968880;28;20534;-76
2023/07/14 06:32:41;;;;;;;3.07;2.73;;;;;;;19.47;53.83;98056.44;4970119;28;20451;-75
2023/07/14 06:35:10;;;;;;;3.23;2.80;;;;;;;19.37;53.98;98048.09;4971707;28;20455;-75
2023/07/14 06:37:37;;;;;;;4.30;2.90;;;;;;;19.77;54.23;98036.72;4969127;28;20493;-75
2023/07/14 06:40:07;;;;;;;3.70;2.80;;;;;;;19.73;54.21;98041.06;4971538;28;20478;-76
2023/07/14 06:42:33;;;;;;;3.00;2.70;;;;;;;19.59;54.40;98040.66;4972496;28;20514;-75
2023/07/14 06:45:00;;;;;;;5.80;2.90;;;;;;;19.93;53.49;98037.66;4971902;28;20443;-75
2023/07/14 06:47:27;;;;;;;5.10;3.33;;;;;;;19.88;53.72;98027.44;4969655;28;20459;-75
2023/07/14 06:49:56;;;;;;;3.80;2.63;;;;;;;20.18;52.11;98026.03;4968478;28;20493;-75
2023/07/14 06:52:23;;;;;;;3.97;2.87;;;;;;;20.13;53.13;98029.59;4971783;28;20473;-75
2023/07/14 06:54:51;;;;;;;3.30;3.00;;;;;;;20.37;52.07;98021.75;4971768;28;20535;-75
2023/07/14 06:57:18;;;;;;;5.20;2.87;;;;;;;20.45;52.24;98021.31;4977481;28;20577;-75
2023/07/14 06:59:45;;;;;;;3.30;2.90;;;;;;;20.62;51.21;98013.69;4971215;28;20486;-75
2023/07/14 07:02:12;;;;;;;3.80;2.70;;;;;;;20.97;49.99;98017.69;4970147;28;20967;-75
2023/07/14 07:04:39;;;;;;;3.23;2.70;;;;;;;20.95;50.53;98015.19;4968696;28;20561;-79
2023/07/14 07:07:07;;;;;;;4.50;2.80;;;;;;;21.10;49.78;98007.00;4968679;28;20571;-76
2023/07/14 07:09:34;;;;;;;3.23;2.60;;;;;;;21.09;49.08;98001.78;4965543;28;20566;-76
2023/07/14 07:12:01;;;;;;;3.90;2.87;;;;;;;21.30;49.37;98017.25;4963831;28;20892;-76
2023/07/14 07:14:28;;;;;;;5.30;2.70;;;;;;;21.48;49.74;98006.81;4968589;28;20462;-76
2023/07/14 07:16:56;;;;;;;2.80;2.60;;;;;;;21.63;49.78;98010.44;4969584;28;20982;-76
2023/07/14 07:19:23;;;;;;;3.87;2.63;;;;;;;21.64;48.20;98012.09;4968572;28;20481;-75
2023/07/14 07:21:50;;;;;;;3.43;2.40;;;;;;;21.95;48.32;98007.41;4965612;28;20505;-76
2023/07/14 07:24:18;;;;;;;3.20;2.50;;;;;;;21.65;47.09;98004.66;4965169;28;20458;-76
2023/07/14 07:26:45;;;;;;;3.10;2.53;;;;;;;21.78;47.62;98009.59;4967052;28;20595;-76
2023/07/14 07:29:12;;;;;;;2.73;2.43;;;;;;;21.95;47.80;98007.41;4966211;28;20466;-76
2023/07/14 07:31:39;;;;;;;2.50;2.30;;;;;;;22.27;45.85;98006.31;4966949;28;20475;-76
2023/07/14 07:34:08;;;;;;;2.73;2.43;;;;;;;22.04;46.30;98000.28;4966973;28;20558;-75
2023/07/14 07:36:35;;;;;;;3.13;2.57;;;;;;;22.31;46.74;97994.44;4964042;28;20465;-76
2023/07/14 07:39:02;;;;;;;3.20;2.67;;;;;;;22.66;45.20;97993.50;4960983;28;21092;-76
2023/07/14 07:41:30;;;;;;;3.63;2.67;;;;;;;23.00;44.38;97990.09;4960404;28;20971;-75
2023/07/14 07:43:57;;;;;;;2.37;2.17;;;;;;;22.93;43.80;97987.63;4968478;28;20815;-75
2023/07/14 07:46:26;;;;;;;2.80;2.10;;;;;;;23.31;43.18;97997.09;4967037;28;20478;-75
2023/07/14 07:48:53;;;;;;;3.80;2.20;;;;;;;23.13;42.66;97995.81;4967302;28;20562;-75
2023/07/14 07:51:21;;;;;;;2.60;2.23;;;;;;;23.20;44.04;97995.50;4967707;28;20545;-76
2023/07/14 07:53:47;;;;;;;4.00;2.07;;;;;;;23.38;41.49;97997.63;4969117;28;20455;-76
2023/07/14 07:56:14;;;;;;;5.33;2.30;;;;;;;23.53;42.32;97998.63;4966666;28;20458;-76
2023/07/14 07:58:43;;;;;;;2.37;2.10;;;;;;;23.50;41.47;97982.59;4965650;28;20566;-75
2023/07/14 08:01:17;;;;;;;2.60;2.10;;;;;;;23.78;40.83;97968.84;4967098;28;20494;-76
2023/07/14 08:03:44;;;;;;;3.83;2.50;;;;;;;23.39;41.99;97974.38;4968665;28;20549;-75
2023/07/14 08:06:10;;;;;;;3.33;2.23;;;;;;;23.57;41.96;97974.84;4967959;28;21033;-75
2023/07/14 08:08:37;;;;;;;4.10;2.60;;;;;;;23.79;41.80;97975.22;4966654;28;21350;-75
2023/07/14 08:11:08;;;;;;;4.37;2.50;;;;;;;24.08;40.11;97973.28;4965918;28;21133;-75
2023/07/14 08:13:35;;;;;;;2.70;2.03;;;;;;;24.40;39.93;97964.41;4967556;28;20470;-75
2023/07/14 08:16:03;;;;;;;2.60;2.40;;;;;;;24.27;38.75;97959.59;4963777;28;20583;-76
2023/07/14 08:18:30;;;;;;;4.43;2.27;;;;;;;24.67;38.89;97958.31;4969819;28;20467;-75
2023/07/14 08:20:58;;;;;;;4.33;2.40;;;;;;;25.11;38.66;97955.25;4965664;28;20471;-76
2023/07/14 08:23:25;;;;;;;2.70;2.23;;;;;;;25.34;38.00;97956.28;4966848;28;20469;-76
2023/07/14 08:25:53;;;;;;;3.13;2.20;;;;;;;25.43;37.19;97953.69;4963321;28;20572;-76
2023/07/14 08:28:20;;;;;;;3.73;1.87;;;;;;;25.55;36.51;97950.44;4954561;28;20495;-76
2023/07/14 08:30:48;;;;;;;2.33;2.00;;;;;;;25.50;35.91;97950.53;4992728;28;20689;-76
2023/07/14 08:33:16;;;;;;;2.10;1.83;;;;;;;25.87;35.98;97961.59;4992395;28;20548;-76
2023/07/14 08:35:43;;;;;;;2.57;2.13;;;;;;;25.44;35.94;97956.16;4987062;28;20457;-76
2023/07/14 08:38:10;;;;;;;4.57;2.20;;;;;;;25.85;36.90;97955.53;4987011;28;20461;-76
2023/07/14 08:40:41;;;;;;;2.10;2.00;;;;;;;25.87;35.49;97947.72;4988806;28;20500;-75
2023/07/14 08:43:19;;;;;;;3.13;2.37;;;;;;;25.58;35.06;97933.22;4987853;28;20862;-75
2023/07/14 08:45:53;;;;;;;3.93;2.20;;;;;;;25.72;36.10;97939.66;4992951;28;20473;-75
2023/07/14 08:48:27;;;;;;;3.43;2.40;;;;;;;26.11;33.27;97930.94;4989621;28;20813;-77
2023/07/14 08:50:58;;;;;;;2.67;2.00;;;;;;;25.47;34.42;97926.19;4990888;28;20501;-75
2023/07/14 08:53:27;;;;;;;1.90;1.70;;;;;;;25.11;34.62;97930.31;4980866;28;20531;-76
2023/07/14 08:56:00;;;;;;;2.80;1.97;;;;;;;25.60;33.78;97933.75;4986308;28;20965;-76
2023/07/14 08:58:28;;;;;;;2.60;1.80;;;;;;;25.67;33.28;97936.97;4987024;28;20542;-76
2023/07/14 09:01:03;;;;;;;2.53;2.30;;;;;;;25.87;33.36;97933.03;4986115;28;20568;-76
2023/07/14 09:03:37;;;;;;;4.37;2.17;;;;;;;25.85;33.72;97927.78;4993625;28;20446;-76
2023/07/14 09:06:11;;;;;;;1.73;1.60;;;;;;;25.53;33.31;97928.56;5005878;28;20464;-76
2023/07/14 09:08:38;;;;;;;2.23;1.70;;;;;;;25.77;33.37;97932.06;4994530;28;20475;-76
2023/07/14 09:11:12;;;;;;;3.73;2.40;;;;;;;25.97;33.29;97933.69;4993543;28;21073;-76
2023/07/14 09:13:46;;;;;;;2.97;2.30;;;;;;;25.84;32.88;97937.25;4995888;28;20448;-76
2023/07/14 09:16:15;;;;;;;3.80;2.10;;;;;;;25.89;33.09;97926.06;4995258;28;20856;-76
2023/07/14 09:18:59;;;;;;;2.90;2.03;;;;;;;26.02;33.03;97925.25;4987166;28;20977;-76
2023/07/14 09:21:31;;;;;;;2.13;1.93;;;;;;;25.91;33.12;97931.31;4985835;28;20549;-76
2023/07/14 09:24:14;;;;;;;2.40;1.80;;;;;;;26.08;33.38;97914.88;4991822;28;20615;-76
2023/07/14 09:26:44;;;;;;;2.40;1.90;;;;;;;26.41;32.85;97922.03;4991022;28;20490;-76
2023/07/14 09:29:14;;;;;;;2.03;1.80;;;;;;;26.34;32.96;97926.34;4997862;28;20465;-74
2023/07/14 09:31:45;;;;;;;2.70;1.70;;;;;;;26.59;32.29;97920.31;4955833;28;20454;-75
2023/07/14 09:34:17;;;;;;;2.17;1.93;;;;;;;26.87;32.60;97914.72;4974673;28;20533;-75
2023/07/14 09:36:46;;;;;;;2.33;1.60;;;;;;;26.36;30.88;97915.75;4967793;28;20533;-75
2023/07/14 09:39:18;;;;;;;2.83;2.10;;;;;;;26.65;30.68;97912.69;4972588;28;20545;-75
2023/07/14 09:41:46;;;;;;;3.17;1.80;;;;;;;26.71;32.04;97917.81;4969997;28;21053;-75
2023/07/14 09:44:12;;;;;;;2.40;1.83;;;;;;;26.81;32.09;97908.44;4968654;28;20540;-74
2023/07/14 09:46:44;;;;;;;2.73;2.10;;;;;;;27.25;31.52;97913.34;4968447;28;20574;-74
2023/07/14 09:49:17;;;;;;;1.90;1.80;;;;;;;26.81;31.42;97899.31;4963253;28;21014;-76
2023/07/14 09:52:03;;;;;;;2.70;1.77;;;;;;;27.18;31.27;97904.59;4967487;28;20451;-76
2023/07/14 09:54:30;;;;;;;2.73;2.07;;;;;;;26.69;30.79;97899.81;4974050;28;20532;-76
2023/07/14 09:57:01;;;;;;;3.70;1.80;;;;;;;26.88;30.89;97902.47;4970622;28;20454;-76
2023/07/14 09:59:28;;;;;;;3.67;1.90;;;;;;;26.49;32.92;97912.19;4973046;28;21098;-76
2023/07/14 10:01:58;;;;;;;1.97;1.77;;;;;;;27.00;32.10;97898.03;4970376;28;20546;-76
2023/07/14 10:04:30;;;;;;;2.33;1.73;;;;;;;27.57;31.59;97909.50;4963447;28;20542;-76
2023/07/14 10:07:23;;;;;;;2.20;2.00;;;;;;;27.27;30.57;97899.94;4953676;28;20489;-76
2023/07/14 10:09:58;;;;;;;3.37;2.07;;;;;;;26.60;31.44;97896.97;4967986;28;20474;-76
2023/07/14 10:12:25;;;;;;;2.50;1.83;;;;;;;26.56;31.55;97886.78;4962507;28;20911;-76
2023/07/14 10:14:53;;;;;;;2.60;2.03;;;;;;;26.96;32.29;97883.16;4965322;28;20485;-76
2023/07/14 10:17:24;;;;;;;3.20;1.83;;;;;;;27.10;31.44;97888.66;4962941;28;20458;-76
2023/07/14 10:19:52;;;;;;;1.70;1.60;;;;;;;27.21;32.06;97880.91;4968479;28;20505;-77
2023/07/14 10:22:21;;;;;;;6.10;2.13;;;;;;;26.88;30.86;97881.09;4963191;28;20462;-75
2023/07/14 10:24:49;;;;;;;3.30;2.23;;;;;;;26.82;31.90;97884.28;4969246;28;20487;-75
2023/07/14 10:27:21;;;;;;;3.13;2.00;;;;;;;27.18;31.60;97876.81;4970777;28;20489;-75
2023/07/14 10:29:50;;;;;;;2.07;1.87;;;;;;;27.06;30.98;97868.19;4967180;28;20559;-74
2023/07/14 10:32:24;;;;;;;2.63;1.90;;;;;;;26.95;31.22;97872.31;4970249;28;20462;-74
2023/07/14 10:34:57;;;;;;;2.10;1.90;;;;;;;26.76;31.17;97870.50;4964170;28;20463;-74
2023/07/14 10:37:27;;;;;;;2.20;2.00;;;;;;;27.20;29.64;97874.53;4973653;28;20882;-75
2023/07/14 10:39:58;;;;;;;2.60;1.80;;;;;;;26.99;30.32;97862.22;4956612;28;21324;-74
2023/07/14 10:42:28;;;;;;;3.40;2.10;;;;;;;27.18;30.70;97868.47;4960350;28;20461;-74
2023/07/14 10:44:56;;;;;;;3.10;2.07;;;;;;;27.16;30.83;97861.59;4970829;28;21147;-74
2023/07/14 10:47:26;;;;;;;2.33;1.77;;;;;;;27.36;30.55;97861.06;4964523;28;20486;-74
2023/07/14 10:49:59;;;;;;;3.77;1.90;;;;;;;27.85;29.61;97859.31;4974095;28;20516;-75
2023/07/14 10:52:28;;;;;;;3.23;2.20;;;;;;;27.70;29.92;97863.31;4969133;28;20959;-74
2023/07/14 10:54:59;;;;;;;2.10;1.90;;;;;;;27.66;29.93;97859.50;4970416;28;21197;-74
2023/07/14 10:57:35;;;;;;;4.43;2.10;;;;;;;27.57;28.86;97865.00;4970952;28;20538;-74
2023/07/14 11:00:14;;;;;;;2.27;1.80;;;;;;;28.12;28.77;97855.50;4978200;28;20478;-76
2023/07/14 11:02:44;;;;;;;2.30;2.00;;;;;;;27.85;28.94;97860.13;4963799;28;20483;-74
2023/07/14 11:05:15;;;;;;;2.10;1.77;;;;;;;27.99;29.68;97844.16;4972436;28;20451;-74
2023/07/14 11:07:41;;;;;;;3.10;1.90;;;;;;;28.28;29.31;97840.03;4974562;28;20820;-75
2023/07/14 11:10:14;;;;;;;2.77;2.30;;;;;;;28.86;29.28;97836.13;4970587;28;20538;-75
2023/07/14 11:12:47;;;;;;;1.90;1.70;;;;;;;29.20;29.06;97835.31;4967986;28;20501;-75
2023/07/14 11:15:22;;;;;;;2.00;1.80;;;;;;;29.15;28.95;97830.72;4971381;28;20478;-74
2023/07/14 11:17:55;;;;;;;4.60;1.80;;;;;;;29.36;27.43;97834.47;4977259;28;20464;-74
2023/07/14 11:20:28;;;;;;;2.13;1.93;;;;;;;29.30;27.15;97834.97;4977817;28;20585;-74
2023/07/14 11:23:09;;;;;;;2.87;1.80;;;;;;;28.44;28.32;97846.81;4972748;28;20463;-74
2023/07/14 11:25:40;;;;;;;4.40;1.80;;;;;;;28.18;29.27;97827.22;4974317;28;21017;-74
2023/07/14 11:28:28;;;;;;;3.73;1.80;;;;;;;28.10;28.77;97828.00;4963709;28;20494;-73
2023/07/14 11:30:58;;;;;;;2.17;1.80;;;;;;;27.21;30.12;97828.94;4970078;28;20483;-74
2023/07/14 11:33:33;;;;;;;2.00;1.73;;;;;;;27.77;28.89;97811.66;4970741;28;20465;-74
2023/07/14 11:36:03;;;;;;;3.07;2.00;;;;;;;27.73;28.92;97809.81;4970811;28;20989;-74
2023/07/14 11:38:36;;;;;;;3.03;2.00;;;;;;;27.70;28.86;97816.00;4972622;28;20466;-74
2023/07/14 11:41:03;;;;;;;3.33;1.80;;;;;;;27.57;28.88;97817.72;4967364;28;20478;-76
2023/07/14 11:43:31;;;;;;;5.80;2.03;;;;;;;27.77;29.23;97819.16;4984850;28;20469;-74